sensor_id;sensor_type;location;lat;lon;timestamp;pressure;altitude;pressure_sealevel;temperature;humidity
6514;BME280;3290;47.716;9.070;2024-01-11T00:01:14;97735.03;;;1.16;97.68
6514;BME280;3290;47.716;9.070;2024-01-11T00:03:39;97736.53;;;0.90;98.88
6514;BME280;3290;47.716;9.070;2024-01-11T00:06:05;97735.97;;;0.96;99.22
6514;BME280;3290;47.716;9.070;2024-01-11T00:08:30;97736.81;;;1.06;97.83
6514;BME280;3290;47.716;9.070;2024-01-11T00:10:56;97745.22;;;1.08;97.27
6514;BME280;3290;47.716;9.070;2024-01-11T00:13:21;97740.31;;;1.05;97.99
6514;BME280;3290;47.716;9.070;2024-01-11T00:15:46;97735.72;;;0.99;97.42
6514;BME280;3290;47.716;9.070;2024-01-11T00:18:12;97734.34;;;1.04;97.88
6514;BME280;3290;47.716;9.070;2024-01-11T00:20:37;97736.81;;;1.06;97.81
6514;BME280;3290;47.716;9.070;2024-01-11T00:23:03;97730.25;;;1.20;96.44
6514;BME280;3290;47.716;9.070;2024-01-11T00:25:28;97737.59;;;1.34;95.24
6514;BME280;3290;47.716;9.070;2024-01-11T00:27:53;97740.59;;;1.20;95.93
6514;BME280;3290;47.716;9.070;2024-01-11T00:30:19;97739.50;;;1.14;95.72
6514;BME280;3290;47.716;9.070;2024-01-11T00:32:44;97744.41;;;1.17;96.04
6514;BME280;3290;47.716;9.070;2024-01-11T00:35:10;97743.44;;;1.27;96.00
6514;BME280;3290;47.716;9.070;2024-01-11T00:37:35;97740.88;;;1.18;95.39
6514;BME280;3290;47.716;9.070;2024-01-11T00:40:01;97734.38;;;0.95;96.28
6514;BME280;3290;47.716;9.070;2024-01-11T00:42:26;97738.97;;;1.10;95.70
6514;BME280;3290;47.716;9.070;2024-01-11T00:44:51;97747.53;;;1.11;96.67
6514;BME280;3290;47.716;9.070;2024-01-11T00:47:17;97741.69;;;1.09;96.21
6514;BME280;3290;47.716;9.070;2024-01-11T00:49:42;97740.44;;;1.22;96.31
6514;BME280;3290;47.716;9.070;2024-01-11T00:52:08;97737.34;;;1.28;96.16
6514;BME280;3290;47.716;9.070;2024-01-11T00:54:35;97741.78;;;1.26;95.57
6514;BME280;3290;47.716;9.070;2024-01-11T00:57:00;97736.50;;;1.27;95.77
6514;BME280;3290;47.716;9.070;2024-01-11T00:59:25;97744.97;;;1.11;97.03
6514;BME280;3290;47.716;9.070;2024-01-11T01:01:51;97739.09;;;1.18;96.32
6514;BME280;3290;47.716;9.070;2024-01-11T01:04:16;97737.88;;;1.13;96.49
6514;BME280;3290;47.716;9.070;2024-01-11T01:06:42;97743.72;;;1.15;96.12
6514;BME280;3290;47.716;9.070;2024-01-11T01:09:08;97742.22;;;1.40;94.96
6514;BME280;3290;47.716;9.070;2024-01-11T01:11:33;97751.31;;;1.25;94.91
6514;BME280;3290;47.716;9.070;2024-01-11T01:13:58;97745.75;;;1.30;95.22
6514;BME280;3290;47.716;9.070;2024-01-11T01:16:24;97749.81;;;1.14;95.48
6514;BME280;3290;47.716;9.070;2024-01-11T01:18:49;97753.34;;;1.22;96.60
6514;BME280;3290;47.716;9.070;2024-01-11T01:21:14;97756.34;;;1.18;96.15
6514;BME280;3290;47.716;9.070;2024-01-11T01:23:40;97755.13;;;1.12;97.02
6514;BME280;3290;47.716;9.070;2024-01-11T01:26:06;97752.81;;;0.90;98.07
6514;BME280;3290;47.716;9.070;2024-01-11T01:28:31;97751.19;;;0.99;96.99
6514;BME280;3290;47.716;9.070;2024-01-11T01:30:57;97755.25;;;0.92;97.31
6514;BME280;3290;47.716;9.070;2024-01-11T01:33:22;97760.84;;;0.97;97.63
6514;BME280;3290;47.716;9.070;2024-01-11T01:35:48;97770.31;;;0.87;97.72
6514;BME280;3290;47.716;9.070;2024-01-11T01:38:13;97772.38;;;1.02;97.77
6514;BME280;3290;47.716;9.070;2024-01-11T01:40:39;97769.09;;;1.10;97.01
6514;BME280;3290;47.716;9.070;2024-01-11T01:43:07;97777.25;;;0.96;97.22
6514;BME280;3290;47.716;9.070;2024-01-11T01:45:34;97774.00;;;1.13;97.18
6514;BME280;3290;47.716;9.070;2024-01-11T01:47:59;97769.94;;;1.01;97.28
6514;BME280;3290;47.716;9.070;2024-01-11T01:50:25;97774.25;;;0.72;96.89
6514;BME280;3290;47.716;9.070;2024-01-11T01:52:51;97775.31;;;0.70;97.37
6514;BME280;3290;47.716;9.070;2024-01-11T01:55:17;97786.22;;;0.92;95.96
6514;BME280;3290;47.716;9.070;2024-01-11T01:57:44;97785.38;;;0.82;96.31
6514;BME280;3290;47.716;9.070;2024-01-11T02:00:12;97777.63;;;0.73;96.46
6514;BME280;3290;47.716;9.070;2024-01-11T02:02:39;97781.31;;;0.70;97.33
6514;BME280;3290;47.716;9.070;2024-01-11T02:05:05;97786.47;;;0.70;97.48
6514;BME280;3290;47.716;9.070;2024-01-11T02:07:31;97790.81;;;0.88;96.54
6514;BME280;3290;47.716;9.070;2024-01-11T02:09:57;97797.34;;;0.83;95.83
6514;BME280;3290;47.716;9.070;2024-01-11T02:12:23;97797.19;;;0.94;96.25
6514;BME280;3290;47.716;9.070;2024-01-11T02:14:49;97799.19;;;0.72;97.01
6514;BME280;3290;47.716;9.070;2024-01-11T02:17:15;97799.34;;;0.70;95.96
6514;BME280;3290;47.716;9.070;2024-01-11T02:19:40;97802.75;;;0.80;95.84
6514;BME280;3290;47.716;9.070;2024-01-11T02:22:12;97803.03;;;0.77;95.87
6514;BME280;3290;47.716;9.070;2024-01-11T02:24:39;97807.66;;;0.83;95.86
6514;BME280;3290;47.716;9.070;2024-01-11T02:27:05;97793.69;;;0.95;95.16
6514;BME280;3290;47.716;9.070;2024-01-11T02:29:31;97794.75;;;0.83;95.43
6514;BME280;3290;47.716;9.070;2024-01-11T02:31:58;97792.97;;;0.74;95.75
6514;BME280;3290;47.716;9.070;2024-01-11T02:34:27;97795.13;;;0.69;97.07
6514;BME280;3290;47.716;9.070;2024-01-11T02:36:53;97797.22;;;0.45;98.18
6514;BME280;3290;47.716;9.070;2024-01-11T02:39:19;97793.50;;;0.68;96.55
6514;BME280;3290;47.716;9.070;2024-01-11T02:41:46;97786.47;;;0.31;97.80
6514;BME280;3290;47.716;9.070;2024-01-11T02:44:12;97793.03;;;0.44;97.71
6514;BME280;3290;47.716;9.070;2024-01-11T02:46:38;97799.97;;;0.44;96.71
6514;BME280;3290;47.716;9.070;2024-01-11T02:49:03;97790.56;;;0.34;97.52
6514;BME280;3290;47.716;9.070;2024-01-11T02:51:28;97786.84;;;0.66;96.85
6514;BME280;3290;47.716;9.070;2024-01-11T02:53:54;97782.28;;;0.30;98.61
6514;BME280;3290;47.716;9.070;2024-01-11T02:56:19;97782.63;;;0.55;97.46
6514;BME280;3290;47.716;9.070;2024-01-11T02:58:44;97783.16;;;0.49;97.10
6514;BME280;3290;47.716;9.070;2024-01-11T03:01:10;97779.19;;;0.45;97.08
6514;BME280;3290;47.716;9.070;2024-01-11T03:03:35;97778.50;;;0.43;96.57
6514;BME280;3290;47.716;9.070;2024-01-11T03:06:02;97780.03;;;0.55;96.00
6514;BME280;3290;47.716;9.070;2024-01-11T03:08:27;97783.66;;;0.43;96.96
6514;BME280;3290;47.716;9.070;2024-01-11T03:10:53;97773.28;;;0.54;95.55
6514;BME280;3290;47.716;9.070;2024-01-11T03:13:18;97771.34;;;0.47;96.61
6514;BME280;3290;47.716;9.070;2024-01-11T03:15:43;97779.84;;;0.38;97.43
6514;BME280;3290;47.716;9.070;2024-01-11T03:18:09;97779.09;;;0.56;96.81
6514;BME280;3290;47.716;9.070;2024-01-11T03:20:34;97778.72;;;0.22;97.67
6514;BME280;3290;47.716;9.070;2024-01-11T03:22:59;97780.91;;;0.26;97.52
6514;BME280;3290;47.716;9.070;2024-01-11T03:25:25;97776.34;;;0.39;97.34
6514;BME280;3290;47.716;9.070;2024-01-11T03:27:50;97780.69;;;0.39;97.13
6514;BME280;3290;47.716;9.070;2024-01-11T03:30:16;97773.09;;;0.46;97.24
6514;BME280;3290;47.716;9.070;2024-01-11T03:32:41;97774.50;;;0.21;97.36
6514;BME280;3290;47.716;9.070;2024-01-11T03:35:07;97779.84;;;0.29;97.35
6514;BME280;3290;47.716;9.070;2024-01-11T03:37:33;97780.63;;;0.20;97.97
6514;BME280;3290;47.716;9.070;2024-01-11T03:39:59;97786.09;;;0.36;96.33
6514;BME280;3290;47.716;9.070;2024-01-11T03:42:25;97779.75;;;0.10;97.20
6514;BME280;3290;47.716;9.070;2024-01-11T03:44:50;97779.97;;;0.27;97.56
6514;BME280;3290;47.716;9.070;2024-01-11T03:47:15;97781.19;;;0.33;97.21
6514;BME280;3290;47.716;9.070;2024-01-11T03:49:41;97771.44;;;0.27;96.60
6514;BME280;3290;47.716;9.070;2024-01-11T03:52:06;97773.91;;;0.38;95.70
6514;BME280;3290;47.716;9.070;2024-01-11T03:54:31;97771.13;;;0.20;96.76
6514;BME280;3290;47.716;9.070;2024-01-11T03:56:57;97769.34;;;0.21;96.75
6514;BME280;3290;47.716;9.070;2024-01-11T03:59:22;97762.66;;;0.39;96.04
6514;BME280;3290;47.716;9.070;2024-01-11T04:01:48;97758.25;;;0.78;93.68
6514;BME280;3290;47.716;9.070;2024-01-11T04:04:13;97761.00;;;0.38;94.68
6514;BME280;3290;47.716;9.070;2024-01-11T04:06:38;97761.13;;;0.27;95.30
6514;BME280;3290;47.716;9.070;2024-01-11T04:09:04;97763.34;;;0.40;94.89
6514;BME280;3290;47.716;9.070;2024-01-11T04:11:29;97768.00;;;0.17;95.52
6514;BME280;3290;47.716;9.070;2024-01-11T04:13:55;97762.91;;;0.36;95.21
6514;BME280;3290;47.716;9.070;2024-01-11T04:16:21;97754.94;;;0.39;94.69
6514;BME280;3290;47.716;9.070;2024-01-11T04:18:46;97762.34;;;0.32;94.25
6514;BME280;3290;47.716;9.070;2024-01-11T04:21:25;97757.25;;;0.12;96.19
6514;BME280;3290;47.716;9.070;2024-01-11T04:23:54;97758.69;;;-0.04;96.78
6514;BME280;3290;47.716;9.070;2024-01-11T04:26:20;97759.22;;;0.29;95.93
6514;BME280;3290;47.716;9.070;2024-01-11T04:28:46;97760.47;;;-0.05;97.31
6514;BME280;3290;47.716;9.070;2024-01-11T04:31:16;97768.97;;;0.25;96.16
6514;BME280;3290;47.716;9.070;2024-01-11T04:33:42;97761.69;;;0.39;99.23
6514;BME280;3290;47.716;9.070;2024-01-11T04:36:08;97765.25;;;0.39;97.52
6514;BME280;3290;47.716;9.070;2024-01-11T04:38:34;97758.22;;;0.11;97.31
6514;BME280;3290;47.716;9.070;2024-01-11T04:40:59;97759.94;;;0.01;97.12
6514;BME280;3290;47.716;9.070;2024-01-11T04:43:25;97761.31;;;0.05;96.38
6514;BME280;3290;47.716;9.070;2024-01-11T04:45:51;97753.69;;;-0.06;97.17
6514;BME280;3290;47.716;9.070;2024-01-11T04:48:16;97753.84;;;0.02;96.34
6514;BME280;3290;47.716;9.070;2024-01-11T04:50:42;97755.03;;;-0.32;97.70
6514;BME280;3290;47.716;9.070;2024-01-11T04:53:08;97751.78;;;-0.04;96.55
6514;BME280;3290;47.716;9.070;2024-01-11T04:55:34;97757.72;;;-0.13;96.82
6514;BME280;3290;47.716;9.070;2024-01-11T04:57:59;97753.09;;;-0.19;96.86
6514;BME280;3290;47.716;9.070;2024-01-11T05:00:25;97750.22;;;-0.16;96.70
6514;BME280;3290;47.716;9.070;2024-01-11T05:02:50;97750.94;;;-0.14;97.08
6514;BME280;3290;47.716;9.070;2024-01-11T05:05:15;97748.44;;;-0.25;96.75
6514;BME280;3290;47.716;9.070;2024-01-11T05:07:41;97750.19;;;-0.25;97.85
6514;BME280;3290;47.716;9.070;2024-01-11T05:10:07;97743.28;;;0.05;96.66
6514;BME280;3290;47.716;9.070;2024-01-11T05:12:32;97749.38;;;0.04;96.32
6514;BME280;3290;47.716;9.070;2024-01-11T05:14:58;97745.38;;;-0.19;96.71
6514;BME280;3290;47.716;9.070;2024-01-11T05:17:25;97745.38;;;-0.19;97.55
6514;BME280;3290;47.716;9.070;2024-01-11T05:19:51;97750.19;;;0.04;96.26
6514;BME280;3290;47.716;9.070;2024-01-11T05:22:16;97750.59;;;-0.30;96.25
6514;BME280;3290;47.716;9.070;2024-01-11T05:24:42;97745.28;;;-0.08;95.67
6514;BME280;3290;47.716;9.070;2024-01-11T05:27:08;97753.25;;;-0.11;95.89
6514;BME280;3290;47.716;9.070;2024-01-11T05:29:33;97756.16;;;0.05;95.01
6514;BME280;3290;47.716;9.070;2024-01-11T05:31:59;97756.09;;;-0.14;95.32
6514;BME280;3290;47.716;9.070;2024-01-11T05:34:24;97757.09;;;0.52;96.30
6514;BME280;3290;47.716;9.070;2024-01-11T05:36:49;97750.34;;;0.51;94.04
6514;BME280;3290;47.716;9.070;2024-01-11T05:39:15;97755.00;;;0.28;93.85
6514;BME280;3290;47.716;9.070;2024-01-11T05:41:43;97759.72;;;0.23;94.21
6514;BME280;3290;47.716;9.070;2024-01-11T05:44:09;97754.78;;;0.01;93.62
6514;BME280;3290;47.716;9.070;2024-01-11T05:46:34;97763.47;;;0.00;94.27
6514;BME280;3290;47.716;9.070;2024-01-11T05:49:00;97761.34;;;0.14;93.91
6514;BME280;3290;47.716;9.070;2024-01-11T05:51:25;97770.13;;;0.12;93.68
6514;BME280;3290;47.716;9.070;2024-01-11T05:53:51;97774.28;;;-0.06;95.37
6514;BME280;3290;47.716;9.070;2024-01-11T05:56:18;97770.66;;;-0.24;95.79
6514;BME280;3290;47.716;9.070;2024-01-11T05:58:44;97776.06;;;-0.27;96.33
6514;BME280;3290;47.716;9.070;2024-01-11T06:01:09;97781.28;;;-0.38;96.69
6514;BME280;3290;47.716;9.070;2024-01-11T06:03:35;97781.22;;;-0.27;96.80
6514;BME280;3290;47.716;9.070;2024-01-11T06:06:01;97785.44;;;-0.26;96.86
6514;BME280;3290;47.716;9.070;2024-01-11T06:08:28;97786.28;;;-0.16;96.32
6514;BME280;3290;47.716;9.070;2024-01-11T06:10:53;97784.41;;;-0.14;96.07
6514;BME280;3290;47.716;9.070;2024-01-11T06:13:18;97788.56;;;-0.42;97.20
6514;BME280;3290;47.716;9.070;2024-01-11T06:15:44;97780.16;;;-0.24;95.99
6514;BME280;3290;47.716;9.070;2024-01-11T06:18:09;97789.78;;;-0.46;96.59
6514;BME280;3290;47.716;9.070;2024-01-11T06:20:35;97795.16;;;-0.49;96.42
6514;BME280;3290;47.716;9.070;2024-01-11T06:23:00;97798.91;;;-0.13;95.79
6514;BME280;3290;47.716;9.070;2024-01-11T06:25:25;97789.72;;;-0.56;96.78
6514;BME280;3290;47.716;9.070;2024-01-11T06:27:51;97792.66;;;-0.60;97.90
6514;BME280;3290;47.716;9.070;2024-01-11T06:30:16;97797.00;;;-0.61;97.19
6514;BME280;3290;47.716;9.070;2024-01-11T06:32:42;97799.06;;;-0.55;97.95
6514;BME280;3290;47.716;9.070;2024-01-11T06:35:08;97796.66;;;-0.67;98.22
6514;BME280;3290;47.716;9.070;2024-01-11T06:37:33;97801.56;;;-0.64;98.70
6514;BME280;3290;47.716;9.070;2024-01-11T06:39:59;97800.09;;;-0.78;99.09
6514;BME280;3290;47.716;9.070;2024-01-11T06:42:24;97814.03;;;-0.60;98.28
6514;BME280;3290;47.716;9.070;2024-01-11T06:44:49;97817.63;;;-0.51;98.68
6514;BME280;3290;47.716;9.070;2024-01-11T06:47:15;97813.09;;;-0.79;99.67
6514;BME280;3290;47.716;9.070;2024-01-11T06:49:41;97811.19;;;-0.77;99.35
6514;BME280;3290;47.716;9.070;2024-01-11T06:52:06;97818.03;;;-0.87;99.65
6514;BME280;3290;47.716;9.070;2024-01-11T06:54:32;97822.22;;;-0.86;98.73
6514;BME280;3290;47.716;9.070;2024-01-11T06:56:58;97820.78;;;-0.68;98.79
6514;BME280;3290;47.716;9.070;2024-01-11T06:59:23;97831.44;;;-0.52;98.19
6514;BME280;3290;47.716;9.070;2024-01-11T07:01:49;97828.31;;;-0.56;98.26
6514;BME280;3290;47.716;9.070;2024-01-11T07:04:14;97830.72;;;-0.54;98.17
6514;BME280;3290;47.716;9.070;2024-01-11T07:06:40;97829.81;;;-0.53;98.04
6514;BME280;3290;47.716;9.070;2024-01-11T07:09:05;97837.63;;;-0.75;98.78
6514;BME280;3290;47.716;9.070;2024-01-11T07:11:31;97841.34;;;-0.68;98.58
6514;BME280;3290;47.716;9.070;2024-01-11T07:13:57;97850.09;;;-0.71;99.12
6514;BME280;3290;47.716;9.070;2024-01-11T07:16:23;97852.19;;;-0.96;99.90
6514;BME280;3290;47.716;9.070;2024-01-11T07:18:49;97845.47;;;-0.56;98.59
6514;BME280;3290;47.716;9.070;2024-01-11T07:21:21;97839.28;;;-0.85;100.00
6514;BME280;3290;47.716;9.070;2024-01-11T07:23:48;97856.59;;;-0.87;100.00
6514;BME280;3290;47.716;9.070;2024-01-11T07:26:14;97852.59;;;-0.80;99.32
6514;BME280;3290;47.716;9.070;2024-01-11T07:28:39;97859.50;;;-0.81;99.42
6514;BME280;3290;47.716;9.070;2024-01-11T07:31:04;97853.53;;;-0.81;98.93
6514;BME280;3290;47.716;9.070;2024-01-11T07:33:31;97855.06;;;-0.58;98.39
6514;BME280;3290;47.716;9.070;2024-01-11T07:35:57;97855.50;;;-1.05;99.21
6514;BME280;3290;47.716;9.070;2024-01-11T07:38:22;97851.75;;;-0.70;99.26
6514;BME280;3290;47.716;9.070;2024-01-11T07:40:47;97856.22;;;-0.72;99.11
6514;BME280;3290;47.716;9.070;2024-01-11T07:43:13;97862.84;;;-0.69;98.84
6514;BME280;3290;47.716;9.070;2024-01-11T07:45:39;97863.06;;;-0.61;98.82
6514;BME280;3290;47.716;9.070;2024-01-11T07:48:05;97862.88;;;-0.49;98.73
6514;BME280;3290;47.716;9.070;2024-01-11T07:50:30;97872.09;;;-0.46;97.85
6514;BME280;3290;47.716;9.070;2024-01-11T07:52:56;97874.81;;;-0.79;98.34
6514;BME280;3290;47.716;9.070;2024-01-11T07:55:21;97877.38;;;-0.79;98.18
6514;BME280;3290;47.716;9.070;2024-01-11T07:57:49;97884.22;;;-1.11;99.08
6514;BME280;3290;47.716;9.070;2024-01-11T08:00:15;97877.13;;;-0.76;97.98
6514;BME280;3290;47.716;9.070;2024-01-11T08:02:41;97873.53;;;-0.53;97.08
6514;BME280;3290;47.716;9.070;2024-01-11T08:05:06;97886.28;;;-0.83;97.95
6514;BME280;3290;47.716;9.070;2024-01-11T08:07:32;97881.44;;;-0.66;97.29
6514;BME280;3290;47.716;9.070;2024-01-11T08:09:57;97893.75;;;-0.80;97.45
6514;BME280;3290;47.716;9.070;2024-01-11T08:12:23;97892.38;;;-0.84;97.35
6514;BME280;3290;47.716;9.070;2024-01-11T08:14:48;97899.88;;;-0.92;98.49
6514;BME280;3290;47.716;9.070;2024-01-11T08:17:14;97895.22;;;-0.98;98.83
6514;BME280;3290;47.716;9.070;2024-01-11T08:19:40;97895.13;;;-0.76;98.61
6514;BME280;3290;47.716;9.070;2024-01-11T08:22:08;97895.72;;;-0.41;96.75
6514;BME280;3290;47.716;9.070;2024-01-11T08:24:35;97896.69;;;-0.84;97.38
6514;BME280;3290;47.716;9.070;2024-01-11T08:27:00;97893.88;;;-0.50;97.33
6514;BME280;3290;47.716;9.070;2024-01-11T08:29:26;97902.34;;;-0.70;97.69
6514;BME280;3290;47.716;9.070;2024-01-11T08:31:51;97908.16;;;-0.88;98.92
6514;BME280;3290;47.716;9.070;2024-01-11T08:34:16;97904.91;;;-0.59;97.85
6514;BME280;3290;47.716;9.070;2024-01-11T08:36:42;97919.25;;;-0.88;98.93
6514;BME280;3290;47.716;9.070;2024-01-11T08:39:07;97922.28;;;-0.83;99.13
6514;BME280;3290;47.716;9.070;2024-01-11T08:41:36;97920.88;;;-0.87;98.60
6514;BME280;3290;47.716;9.070;2024-01-11T08:44:03;97920.03;;;-0.77;98.52
6514;BME280;3290;47.716;9.070;2024-01-11T08:46:31;97920.69;;;-1.06;99.73
6514;BME280;3290;47.716;9.070;2024-01-11T08:48:58;97924.38;;;-0.88;98.77
6514;BME280;3290;47.716;9.070;2024-01-11T08:51:24;97912.94;;;-0.95;98.42
6514;BME280;3290;47.716;9.070;2024-01-11T08:53:49;97918.63;;;-0.81;99.30
6514;BME280;3290;47.716;9.070;2024-01-11T08:56:14;97921.09;;;-0.79;98.30
6514;BME280;3290;47.716;9.070;2024-01-11T08:58:42;97914.94;;;-0.87;98.25
6514;BME280;3290;47.716;9.070;2024-01-11T09:01:08;97919.75;;;-1.05;98.22
6514;BME280;3290;47.716;9.070;2024-01-11T09:03:36;97923.50;;;-0.98;97.98
6514;BME280;3290;47.716;9.070;2024-01-11T09:06:02;97938.34;;;-1.34;99.13
6514;BME280;3290;47.716;9.070;2024-01-11T09:08:29;97938.91;;;-0.98;98.81
6514;BME280;3290;47.716;9.070;2024-01-11T09:10:55;97927.44;;;-0.94;97.68
6514;BME280;3290;47.716;9.070;2024-01-11T09:13:21;97921.06;;;-1.10;98.07
6514;BME280;3290;47.716;9.070;2024-01-11T09:15:46;97917.63;;;-1.00;97.06
6514;BME280;3290;47.716;9.070;2024-01-11T09:18:11;97917.16;;;-0.94;96.37
6514;BME280;3290;47.716;9.070;2024-01-11T09:20:37;97919.94;;;-0.86;96.48
6514;BME280;3290;47.716;9.070;2024-01-11T09:23:03;97922.09;;;-1.13;97.68
6514;BME280;3290;47.716;9.070;2024-01-11T09:25:32;97928.50;;;-0.85;96.34
6514;BME280;3290;47.716;9.070;2024-01-11T09:27:58;97933.31;;;-1.03;96.66
6514;BME280;3290;47.716;9.070;2024-01-11T09:30:23;97932.09;;;-0.88;96.00
6514;BME280;3290;47.716;9.070;2024-01-11T09:32:48;97940.91;;;-1.01;97.35
6514;BME280;3290;47.716;9.070;2024-01-11T09:35:14;97943.03;;;-0.64;95.06
6514;BME280;3290;47.716;9.070;2024-01-11T09:37:40;97943.78;;;-0.73;94.46
6514;BME280;3290;47.716;9.070;2024-01-11T09:40:06;97943.53;;;-0.81;95.38
6514;BME280;3290;47.716;9.070;2024-01-11T09:42:36;97941.28;;;-0.01;93.05
6514;BME280;3290;47.716;9.070;2024-01-11T09:45:07;97938.59;;;-0.31;93.26
6514;BME280;3290;47.716;9.070;2024-01-11T09:47:33;97943.06;;;-0.44;94.65
6514;BME280;3290;47.716;9.070;2024-01-11T09:50:02;97942.94;;;-0.11;93.21
6514;BME280;3290;47.716;9.070;2024-01-11T09:52:28;97934.09;;;-0.49;93.78
6514;BME280;3290;47.716;9.070;2024-01-11T09:54:53;97948.31;;;-0.66;95.12
6514;BME280;3290;47.716;9.070;2024-01-11T09:57:24;97952.72;;;-0.26;93.35
6514;BME280;3290;47.716;9.070;2024-01-11T09:59:53;97954.84;;;-0.62;94.14
6514;BME280;3290;47.716;9.070;2024-01-11T10:02:19;97953.44;;;-0.66;95.18
6514;BME280;3290;47.716;9.070;2024-01-11T10:04:45;97963.00;;;-0.57;96.18
6514;BME280;3290;47.716;9.070;2024-01-11T10:07:11;97968.69;;;-0.84;96.08
6514;BME280;3290;47.716;9.070;2024-01-11T10:09:37;97958.56;;;-0.55;95.21
6514;BME280;3290;47.716;9.070;2024-01-11T10:12:03;97974.16;;;-0.78;95.42
6514;BME280;3290;47.716;9.070;2024-01-11T10:14:30;97981.81;;;-0.56;95.90
6514;BME280;3290;47.716;9.070;2024-01-11T10:16:56;97992.88;;;-0.76;95.75
6514;BME280;3290;47.716;9.070;2024-01-11T10:19:22;97990.53;;;-0.79;95.58
6514;BME280;3290;47.716;9.070;2024-01-11T10:21:47;97974.50;;;-0.82;96.49
6514;BME280;3290;47.716;9.070;2024-01-11T10:24:18;97970.97;;;-0.60;95.31
6514;BME280;3290;47.716;9.070;2024-01-11T10:26:43;97968.50;;;-0.50;94.87
6514;BME280;3290;47.716;9.070;2024-01-11T10:29:09;97964.91;;;-0.81;94.97
6514;BME280;3290;47.716;9.070;2024-01-11T10:31:36;97963.66;;;-0.97;95.93
6514;BME280;3290;47.716;9.070;2024-01-11T10:34:03;97972.34;;;-0.45;94.17
6514;BME280;3290;47.716;9.070;2024-01-11T10:36:31;97964.09;;;-0.59;93.83
6514;BME280;3290;47.716;9.070;2024-01-11T10:38:57;97969.16;;;-0.06;92.44
6514;BME280;3290;47.716;9.070;2024-01-11T10:41:23;97965.63;;;-0.05;92.09
6514;BME280;3290;47.716;9.070;2024-01-11T10:43:50;97968.19;;;-0.26;92.67
6514;BME280;3290;47.716;9.070;2024-01-11T10:46:18;97966.84;;;-0.51;92.79
6514;BME280;3290;47.716;9.070;2024-01-11T10:48:49;97963.28;;;-0.71;92.98
6514;BME280;3290;47.716;9.070;2024-01-11T10:51:20;97961.97;;;-0.65;93.93
6514;BME280;3290;47.716;9.070;2024-01-11T10:53:47;97963.53;;;-0.42;92.57
6514;BME280;3290;47.716;9.070;2024-01-11T10:56:16;97962.94;;;-0.66;93.38
6514;BME280;3290;47.716;9.070;2024-01-11T10:58:42;97958.44;;;-0.53;94.15
6514;BME280;3290;47.716;9.070;2024-01-11T11:01:10;97945.13;;;-0.58;93.45
6514;BME280;3290;47.716;9.070;2024-01-11T11:03:36;97941.22;;;-0.42;93.57
6514;BME280;3290;47.716;9.070;2024-01-11T11:06:02;97942.19;;;-0.23;91.52
6514;BME280;3290;47.716;9.070;2024-01-11T11:08:29;97936.47;;;-0.57;93.36
6514;BME280;3290;47.716;9.070;2024-01-11T11:11:00;97934.81;;;-0.58;93.96
6514;BME280;3290;47.716;9.070;2024-01-11T11:13:26;97929.84;;;-0.40;93.37
6514;BME280;3290;47.716;9.070;2024-01-11T11:15:53;97920.59;;;-0.11;91.64
6514;BME280;3290;47.716;9.070;2024-01-11T11:18:19;97928.66;;;-0.36;93.12
6514;BME280;3290;47.716;9.070;2024-01-11T11:20:47;97923.41;;;-0.34;93.37
6514;BME280;3290;47.716;9.070;2024-01-11T11:23:20;97925.34;;;-0.27;93.31
6514;BME280;3290;47.716;9.070;2024-01-11T11:26:02;97925.09;;;-0.24;93.08
6514;BME280;3290;47.716;9.070;2024-01-11T11:28:31;97916.69;;;-0.26;93.68
6514;BME280;3290;47.716;9.070;2024-01-11T11:31:00;97912.88;;;-0.31;93.47
6514;BME280;3290;47.716;9.070;2024-01-11T11:33:31;97901.44;;;-0.18;92.68
6514;BME280;3290;47.716;9.070;2024-01-11T11:35:58;97899.13;;;0.20;90.94
6514;BME280;3290;47.716;9.070;2024-01-11T11:38:26;97891.41;;;0.49;90.13
6514;BME280;3290;47.716;9.070;2024-01-11T11:40:53;97900.69;;;0.11;91.11
6514;BME280;3290;47.716;9.070;2024-01-11T11:43:20;97900.44;;;-0.06;92.32
6514;BME280;3290;47.716;9.070;2024-01-11T11:45:47;97904.84;;;-0.17;93.28
6514;BME280;3290;47.716;9.070;2024-01-11T11:51:06;97903.03;;;-0.26;94.73
6514;BME280;3290;47.716;9.070;2024-01-11T11:53:34;97899.50;;;-0.05;92.73
6514;BME280;3290;47.716;9.070;2024-01-11T11:56:01;97899.97;;;0.30;91.35
6514;BME280;3290;47.716;9.070;2024-01-11T11:58:28;97882.63;;;0.32;92.05
6514;BME280;3290;47.716;9.070;2024-01-11T12:00:55;97894.03;;;0.09;92.67
6514;BME280;3290;47.716;9.070;2024-01-11T12:03:28;97898.84;;;0.23;91.62
6514;BME280;3290;47.716;9.070;2024-01-11T12:05:54;97889.25;;;0.25;92.40
6514;BME280;3290;47.716;9.070;2024-01-11T12:08:21;97900.38;;;0.05;92.89
6514;BME280;3290;47.716;9.070;2024-01-11T12:10:46;97898.22;;;0.10;94.84
6514;BME280;3290;47.716;9.070;2024-01-11T12:13:12;97889.06;;;0.17;92.72
6514;BME280;3290;47.716;9.070;2024-01-11T12:15:37;97889.06;;;0.17;93.10
6514;BME280;3290;47.716;9.070;2024-01-11T12:18:03;97883.34;;;0.13;92.15
6514;BME280;3290;47.716;9.070;2024-01-11T12:20:29;97885.03;;;0.03;93.09
6514;BME280;3290;47.716;9.070;2024-01-11T12:22:54;97878.50;;;0.20;92.62
6514;BME280;3290;47.716;9.070;2024-01-11T12:25:20;97883.13;;;0.26;91.00
6514;BME280;3290;47.716;9.070;2024-01-11T12:27:46;97881.88;;;0.40;91.51
6514;BME280;3290;47.716;9.070;2024-01-11T12:30:12;97886.59;;;0.15;91.19
6514;BME280;3290;47.716;9.070;2024-01-11T12:32:42;97880.75;;;0.63;89.53
6514;BME280;3290;47.716;9.070;2024-01-11T12:35:07;97890.50;;;0.60;89.49
6514;BME280;3290;47.716;9.070;2024-01-11T12:37:33;97879.75;;;0.05;90.21
6514;BME280;3290;47.716;9.070;2024-01-11T12:39:58;97890.94;;;0.15;89.91
6514;BME280;3290;47.716;9.070;2024-01-11T12:42:25;97882.88;;;0.29;90.09
6514;BME280;3290;47.716;9.070;2024-01-11T12:44:50;97882.13;;;0.38;90.27
6514;BME280;3290;47.716;9.070;2024-01-11T12:47:17;97887.06;;;0.30;89.76
6514;BME280;3290;47.716;9.070;2024-01-11T12:49:43;97880.03;;;0.61;89.24
6514;BME280;3290;47.716;9.070;2024-01-11T12:52:20;97888.41;;;0.54;89.11
6514;BME280;3290;47.716;9.070;2024-01-11T12:54:46;97889.19;;;0.45;89.36
6514;BME280;3290;47.716;9.070;2024-01-11T12:57:12;97892.31;;;0.78;87.66
6514;BME280;3290;47.716;9.070;2024-01-11T12:59:42;97896.94;;;0.84;87.81
6514;BME280;3290;47.716;9.070;2024-01-11T13:02:08;97891.00;;;0.93;87.30
6514;BME280;3290;47.716;9.070;2024-01-11T13:04:35;97898.28;;;0.78;87.28
6514;BME280;3290;47.716;9.070;2024-01-11T13:07:00;97896.91;;;0.75;88.27
6514;BME280;3290;47.716;9.070;2024-01-11T13:09:26;97877.22;;;1.31;86.64
6514;BME280;3290;47.716;9.070;2024-01-11T13:11:52;97884.25;;;1.29;86.21
6514;BME280;3290;47.716;9.070;2024-01-11T13:14:17;97887.81;;;1.28;86.96
6514;BME280;3290;47.716;9.070;2024-01-11T13:16:45;97878.00;;;1.04;86.88
6514;BME280;3290;47.716;9.070;2024-01-11T13:19:11;97880.41;;;0.86;86.66
6514;BME280;3290;47.716;9.070;2024-01-11T13:21:36;97882.84;;;0.88;87.71
6514;BME280;3290;47.716;9.070;2024-01-11T13:24:02;97879.09;;;1.11;86.78